createdAt,value
2023-04-23T00:01:06.750Z,95373.91
2023-04-23T00:03:34.506Z,95370.81
2023-04-23T00:06:07.835Z,95363.50
2023-04-23T00:08:34.623Z,95362.69
2023-04-23T00:11:02.099Z,95364.09
2023-04-23T00:13:29.153Z,95353.81
2023-04-23T00:15:55.911Z,95347.44
2023-04-23T00:18:22.350Z,95362.25
2023-04-23T00:20:48.832Z,95355.53
2023-04-23T00:23:15.349Z,95354.13
2023-04-23T00:25:41.790Z,95343.81
2023-04-23T00:28:08.214Z,95345.41
2023-04-23T00:30:34.671Z,95344.31
2023-04-23T00:33:01.249Z,95335.28
2023-04-23T00:35:27.876Z,95338.25
2023-04-23T00:37:54.321Z,95329.34
2023-04-23T00:40:21.136Z,95337.16
2023-04-23T00:42:49.157Z,95327.03
2023-04-23T00:45:16.205Z,95335.44
2023-04-23T00:47:43.452Z,95327.66
2023-04-23T00:50:10.073Z,95331.69
2023-04-23T00:52:39.151Z,95325.63
2023-04-23T00:55:06.615Z,95322.50
2023-04-23T00:57:33.494Z,95327.66
2023-04-23T01:00:00.499Z,95329.06
2023-04-23T01:02:28.480Z,95320.78
2023-04-23T01:04:55.660Z,95317.38
2023-04-23T01:07:22.856Z,95319.84
2023-04-23T01:09:50.570Z,95303.94
2023-04-23T01:12:17.584Z,95324.06
2023-04-23T01:14:44.284Z,95318.44
2023-04-23T01:17:12.218Z,95328.72
2023-04-23T01:19:39.447Z,95311.41
2023-04-23T01:22:11.122Z,95326.06
2023-04-23T01:24:38.477Z,95319.38
2023-04-23T01:27:06.129Z,95313.91
2023-04-23T01:29:33.006Z,95324.22
2023-04-23T01:32:00.004Z,95325.00
2023-04-23T01:34:26.453Z,95312.06
2023-04-23T01:36:54.378Z,95310.19
2023-04-23T01:39:20.900Z,95321.72
2023-04-23T01:41:47.569Z,95315.81
2023-04-23T01:44:14.020Z,95313.28
2023-04-23T01:46:40.660Z,95317.66
2023-04-23T01:49:07.317Z,95316.41
2023-04-23T01:51:33.805Z,95297.22
2023-04-23T01:54:00.252Z,95320.94
2023-04-23T01:56:28.109Z,95319.66
2023-04-23T01:58:54.779Z,95319.66
2023-04-23T02:01:21.861Z,95299.88
2023-04-23T02:03:50.374Z,95330.44
2023-04-23T02:06:17.408Z,95331.81
2023-04-23T02:08:43.868Z,95333.38
2023-04-23T02:11:10.305Z,95328.72
2023-04-23T02:13:36.844Z,95323.72
2023-04-23T02:16:03.372Z,95324.34
2023-04-23T02:18:29.882Z,95321.97
2023-04-23T02:20:57.400Z,95336.03
2023-04-23T02:23:24.341Z,95311.41
2023-04-23T02:25:52.189Z,95309.06
2023-04-23T02:28:18.711Z,95335.72
2023-04-23T02:30:47.793Z,95326.69
2023-04-23T02:33:14.335Z,95310.28
2023-04-23T02:35:40.910Z,95324.00
2023-04-23T02:38:07.839Z,95331.50
2023-04-23T02:40:34.364Z,95331.34
2023-04-23T02:43:01.151Z,95327.44
2023-04-23T02:45:27.583Z,95332.91
2023-04-23T02:47:54.095Z,95336.00
2023-04-23T02:50:20.698Z,95322.59
2023-04-23T02:52:48.267Z,95342.06
2023-04-23T02:55:14.882Z,95301.06
2023-04-23T02:57:41.401Z,95305.44
2023-04-23T03:00:09.132Z,95303.09
2023-04-23T03:02:40.986Z,95333.00
2023-04-23T03:05:08.260Z,95326.78
2023-04-23T03:07:34.718Z,95333.19
2023-04-23T03:10:01.151Z,95332.72
2023-04-23T03:12:27.940Z,95335.50
2023-04-23T03:14:54.794Z,95339.75
2023-04-23T03:17:22.644Z,95339.09
2023-04-23T03:19:49.407Z,95340.31
2023-04-23T03:22:16.081Z,95325.50
2023-04-23T03:24:42.756Z,95333.44
2023-04-23T03:27:09.454Z,95336.41
2023-04-23T03:29:36.197Z,95345.78
2023-04-23T03:32:02.911Z,95341.41
2023-04-23T03:34:30.120Z,95341.59
2023-04-23T03:36:56.561Z,95349.53
2023-04-23T03:39:23.191Z,95349.50
2023-04-23T03:41:52.943Z,95352.94
2023-04-23T03:44:23.523Z,95345.94
2023-04-23T03:46:50.123Z,95346.38
2023-04-23T03:49:17.136Z,95359.97
2023-04-23T03:51:44.330Z,95358.28
2023-04-23T03:54:11.257Z,95371.00
2023-04-23T03:56:57.654Z,95361.03
2023-04-23T03:59:28.002Z,95358.88
2023-04-23T04:01:58.493Z,95363.84
2023-04-23T04:04:26.084Z,95370.53
2023-04-23T04:06:54.450Z,95380.03
2023-04-23T04:09:25.342Z,95367.25
2023-04-23T04:11:53.994Z,95381.31
2023-04-23T04:14:21.168Z,95358.69
2023-04-23T04:16:47.607Z,95369.13
2023-04-23T04:19:14.311Z,95375.38
2023-04-23T04:21:40.764Z,95386.22
2023-04-23T04:24:07.665Z,95386.53
2023-04-23T04:26:34.360Z,95395.38
2023-04-23T04:29:01.604Z,95398.66
2023-04-23T04:31:28.703Z,95399.69
2023-04-23T04:33:55.578Z,95391.44
2023-04-23T04:36:25.278Z,95399.38
2023-04-23T04:39:00.810Z,95401.69
2023-04-23T04:41:27.732Z,95381.25
2023-04-23T04:43:58.539Z,95395.84
2023-04-23T04:46:29.308Z,95389.31
2023-04-23T04:48:55.907Z,95400.06
2023-04-23T04:51:22.865Z,95398.97
2023-04-23T04:53:49.321Z,95398.03
2023-04-23T04:56:15.801Z,95396.53
2023-04-23T04:58:44.727Z,95394.50
2023-04-23T05:01:14.509Z,95421.34
2023-04-23T05:03:41.281Z,95412.59
2023-04-23T05:06:07.828Z,95424.16
2023-04-23T05:08:34.274Z,95423.63
2023-04-23T05:11:01.697Z,95433.88
2023-04-23T05:13:28.145Z,95433.50
2023-04-23T05:15:59.976Z,95438.38
2023-04-23T05:18:26.501Z,95439.25
2023-04-23T05:20:53.246Z,95439.63
2023-04-23T05:23:19.697Z,95444.25
2023-04-23T05:25:46.128Z,95439.25
2023-04-23T05:28:12.556Z,95447.38
2023-04-23T05:30:39.456Z,95447.44
2023-04-23T05:33:05.997Z,95443.13
2023-04-23T05:35:32.508Z,95438.19
2023-04-23T05:37:59.818Z,95465.47
2023-04-23T05:40:26.236Z,95455.97
2023-04-23T05:42:52.677Z,95455.50
2023-04-23T05:45:20.279Z,95448.75
2023-04-23T05:47:46.801Z,95428.22
2023-04-23T05:50:13.319Z,95450.69
2023-04-23T05:52:39.891Z,95451.53
2023-04-23T05:55:08.076Z,95452.63
2023-04-23T05:57:37.412Z,95454.78
2023-04-23T06:00:06.092Z,95461.78
2023-04-23T06:02:39.852Z,95462.28
2023-04-23T06:05:07.997Z,95460.06
2023-04-23T06:07:34.841Z,95461.38
2023-04-23T06:10:01.510Z,95461.00
2023-04-23T06:12:28.013Z,95446.41
2023-04-23T06:14:54.742Z,95449.47
2023-04-23T06:17:21.173Z,95457.97
2023-04-23T06:19:47.725Z,95475.47
2023-04-23T06:22:14.141Z,95469.25
2023-04-23T06:24:40.831Z,95456.81
2023-04-23T06:27:07.540Z,95449.06
2023-04-23T06:29:37.553Z,95443.03
2023-04-23T06:32:05.339Z,95464.59
2023-04-23T06:34:31.939Z,95460.91
2023-04-23T06:36:58.454Z,95460.50
2023-04-23T06:39:25.311Z,95459.63
2023-04-23T06:41:51.772Z,95469.78
2023-04-23T06:44:43.952Z,95469.31
2023-04-23T06:47:10.696Z,95463.34
2023-04-23T06:49:37.175Z,95465.38
2023-04-23T06:52:03.633Z,95463.28
2023-04-23T06:54:30.093Z,95464.34
2023-04-23T06:56:57.373Z,95461.78
2023-04-23T06:59:23.848Z,95444.00
2023-04-23T07:01:53.876Z,95461.78
2023-04-23T07:04:20.411Z,95446.53
2023-04-23T07:06:46.880Z,95444.19
2023-04-23T07:09:13.509Z,95447.41
2023-04-23T07:11:40.401Z,95447.31
2023-04-23T07:14:06.925Z,95446.41
2023-04-23T07:16:33.998Z,95448.16
2023-04-23T07:19:02.200Z,95449.41
2023-04-23T07:21:29.060Z,95448.50
2023-04-23T07:23:57.101Z,95444.00
2023-04-23T07:26:25.085Z,95452.38
2023-04-23T07:28:52.780Z,95448.44
2023-04-23T07:31:20.630Z,95450.97
2023-04-23T07:33:47.716Z,95441.19
2023-04-23T07:36:14.421Z,95437.75
2023-04-23T07:38:41.239Z,95452.00
2023-04-23T07:41:07.724Z,95448.41
2023-04-23T07:43:34.631Z,95460.31
2023-04-23T07:46:01.194Z,95451.34
2023-04-23T07:48:27.867Z,95448.41
2023-04-23T07:50:54.375Z,95456.25
2023-04-23T07:53:21.473Z,95451.75
2023-04-23T07:55:48.001Z,95438.66
2023-04-23T07:58:14.428Z,95440.81
2023-04-23T08:00:40.915Z,95451.63
2023-04-23T08:03:07.512Z,95463.25
2023-04-23T08:05:34.384Z,95445.28
2023-04-23T08:08:00.904Z,95456.03
2023-04-23T08:10:27.397Z,95446.94
2023-04-23T08:12:53.980Z,95433.72
2023-04-23T08:15:20.456Z,95430.31
2023-04-23T08:17:46.898Z,95431.56
2023-04-23T08:20:13.425Z,95444.00
2023-04-23T08:22:39.979Z,95451.88
2023-04-23T08:25:06.812Z,95440.47
2023-04-23T08:27:34.190Z,95438.78
2023-04-23T08:30:00.766Z,95428.34
2023-04-23T08:32:29.704Z,95422.13
2023-04-23T08:34:56.284Z,95410.06
2023-04-23T08:37:30.285Z,95389.47
2023-04-23T08:39:57.588Z,95418.72
2023-04-23T08:42:30.458Z,95418.97
2023-04-23T08:44:57.575Z,95433.63
2023-04-23T08:47:25.289Z,95419.44
2023-04-23T08:49:54.577Z,95425.41
2023-04-23T08:52:25.528Z,95421.63
2023-04-23T08:55:00.008Z,95425.25
2023-04-23T08:57:27.309Z,95436.59
2023-04-23T08:59:55.283Z,95422.72
2023-04-23T09:02:23.091Z,95419.47
2023-04-23T09:04:51.801Z,95422.75
2023-04-23T09:07:19.271Z,95412.00
2023-04-23T09:09:45.818Z,95412.66
2023-04-23T09:12:14.108Z,95406.78
2023-04-23T09:14:41.213Z,95412.84
2023-04-23T09:17:07.922Z,95411.63
2023-04-23T09:19:36.163Z,95416.03
2023-04-23T09:22:03.111Z,95411.06
2023-04-23T09:24:30.648Z,95407.78
2023-04-23T09:26:58.608Z,95402.94
2023-04-23T09:29:26.998Z,95410.41
2023-04-23T09:32:09.634Z,95393.25
2023-04-23T09:34:41.337Z,95411.34
2023-04-23T09:37:08.088Z,95408.09
2023-04-23T09:39:35.996Z,95409.94
2023-04-23T09:42:05.550Z,95402.16
2023-04-23T09:44:33.661Z,95396.50
2023-04-23T09:47:12.422Z,95392.91
2023-04-23T09:49:47.889Z,95388.41
2023-04-23T09:52:15.223Z,95390.75
2023-04-23T09:54:43.098Z,95391.97
2023-04-23T09:57:11.780Z,95389.97
2023-04-23T09:59:48.500Z,95387.78
2023-04-23T10:02:18.911Z,95374.22
2023-04-23T10:04:52.331Z,95381.84
2023-04-23T10:07:22.856Z,95373.56
2023-04-23T10:09:49.384Z,95369.97
2023-04-23T10:12:35.684Z,95364.31
2023-04-23T10:15:08.040Z,95366.94
2023-04-23T10:17:38.954Z,95366.28
2023-04-23T10:20:07.241Z,95363.44
2023-04-23T10:22:35.600Z,95360.63
2023-04-23T10:25:09.320Z,95352.56
2023-04-23T10:27:52.085Z,95360.50
2023-04-23T10:30:21.518Z,95364.69
2023-04-23T10:32:49.630Z,95358.44
2023-04-23T10:35:16.475Z,95353.72
2023-04-23T10:37:45.824Z,95350.78
2023-04-23T10:40:15.036Z,95357.72
2023-04-23T10:42:44.081Z,95355.09
2023-04-23T10:45:24.047Z,95347.41
2023-04-23T10:47:53.966Z,95338.03
2023-04-23T10:50:31.078Z,95343.94
2023-04-23T10:52:58.705Z,95336.28
2023-04-23T10:55:27.924Z,95333.38
2023-04-23T10:58:05.799Z,95331.13
2023-04-23T11:00:41.699Z,95321.16
2023-04-23T11:03:34.249Z,95306.31
2023-04-23T11:06:07.304Z,95308.50
2023-04-23T11:08:35.885Z,95297.44
2023-04-23T11:11:07.366Z,95300.94
2023-04-23T11:13:34.016Z,95296.38
2023-04-23T11:16:23.227Z,95288.44
2023-04-23T11:19:08.098Z,95287.00
2023-04-23T11:21:59.954Z,95284.84
2023-04-23T11:24:43.057Z,95274.59
2023-04-23T11:27:12.063Z,95284.94
2023-04-23T11:29:40.633Z,95273.69
2023-04-23T11:32:12.914Z,95278.88
2023-04-23T11:34:41.738Z,95276.56
2023-04-23T11:37:11.080Z,95267.44
2023-04-23T11:39:38.575Z,95268.56
2023-04-23T11:42:05.113Z,95262.56
2023-04-23T11:44:31.771Z,95260.78
2023-04-23T11:47:04.437Z,95264.13
2023-04-23T11:49:31.175Z,95260.88
2023-04-23T11:52:01.384Z,95255.88
2023-04-23T11:54:29.568Z,95251.53
2023-04-23T11:56:58.147Z,95231.19
2023-04-23T11:59:24.793Z,95239.72
2023-04-23T12:01:55.357Z,95229.75
2023-04-23T12:04:24.312Z,95220.72
2023-04-23T12:06:52.375Z,95218.84
2023-04-23T12:09:21.465Z,95218.06
2023-04-23T12:11:50.762Z,95205.31
2023-04-23T12:14:20.769Z,95215.66
2023-04-23T12:16:52.031Z,95210.44
2023-04-23T12:19:27.035Z,95207.47
2023-04-23T12:21:55.161Z,95203.25
2023-04-23T12:24:26.668Z,95204.78
2023-04-23T12:26:54.713Z,95201.47
2023-04-23T12:29:22.990Z,95199.56
2023-04-23T12:31:52.126Z,95195.72
2023-04-23T12:34:20.463Z,95194.25
2023-04-23T12:36:49.773Z,95188.03
2023-04-23T12:39:33.977Z,95186.81
2023-04-23T12:42:08.260Z,95177.06
2023-04-23T12:44:35.978Z,95178.94
2023-04-23T12:47:15.306Z,95172.47
2023-04-23T12:49:43.203Z,95157.16
2023-04-23T12:52:12.130Z,95167.88
2023-04-23T12:54:40.464Z,95164.75
2023-04-23T12:57:11.017Z,95162.09
2023-04-23T12:59:38.218Z,95163.75
2023-04-23T13:02:06.830Z,95162.03
2023-04-23T13:04:34.759Z,95153.28
2023-04-23T13:07:01.749Z,95153.72
2023-04-23T13:09:29.173Z,95151.97
2023-04-23T13:11:55.957Z,95144.38
2023-04-23T13:14:22.523Z,95139.28
2023-04-23T13:16:49.415Z,95115.81
2023-04-23T13:19:17.372Z,95129.63
2023-04-23T13:21:44.706Z,95125.94
2023-04-23T13:24:11.342Z,95115.06
2023-04-23T13:26:37.992Z,95110.38
2023-04-23T13:29:04.853Z,95109.03
2023-04-23T13:31:31.657Z,95097.97
2023-04-23T13:33:58.475Z,95094.66
2023-04-23T13:36:25.247Z,95083.72
2023-04-23T13:38:52.199Z,95083.13
2023-04-23T13:41:18.686Z,95080.16
2023-04-23T13:43:45.349Z,95065.09
2023-04-23T13:46:12.155Z,95061.66
2023-04-23T13:48:38.710Z,95060.84
2023-04-23T13:51:16.926Z,95060.19
2023-04-23T13:53:53.120Z,95052.47
2023-04-23T13:56:19.820Z,95050.47
2023-04-23T13:58:48.313Z,95050.47
2023-04-23T14:01:16.081Z,95048.81
2023-04-23T14:03:42.601Z,95043.44
2023-04-23T14:06:09.131Z,95047.38
2023-04-23T14:08:38.636Z,95052.28
2023-04-23T14:11:06.717Z,95031.47
2023-04-23T14:13:33.421Z,95020.03
2023-04-23T14:16:02.131Z,95046.44
2023-04-23T14:18:30.306Z,95037.94
2023-04-23T14:20:56.971Z,95041.31
2023-04-23T14:23:23.441Z,95049.19
2023-04-23T14:25:58.981Z,95040.28
2023-04-23T14:28:45.195Z,95042.84
2023-04-23T14:31:11.790Z,95038.03
2023-04-23T14:33:38.281Z,95041.53
2023-04-23T14:36:04.923Z,95040.56
2023-04-23T14:38:31.539Z,95031.47
2023-04-23T14:40:58.057Z,95026.72
2023-04-23T14:43:24.557Z,95023.91
2023-04-23T14:45:51.948Z,95016.59
2023-04-23T14:48:18.608Z,95004.13
2023-04-23T14:50:45.812Z,94989.97
2023-04-23T14:53:12.279Z,94998.66
2023-04-23T14:55:42.658Z,95006.88
2023-04-23T14:58:09.268Z,94993.38
2023-04-23T15:00:36.000Z,94991.66
2023-04-23T15:03:06.971Z,94990.06
2023-04-23T15:05:33.607Z,94995.81
2023-04-23T15:08:00.106Z,94995.53
2023-04-23T15:10:26.753Z,94997.00
2023-04-23T15:12:53.295Z,94992.88
2023-04-23T15:15:36.922Z,94993.84
2023-04-23T15:18:07.761Z,94951.53
2023-04-23T15:20:34.366Z,94990.22
2023-04-23T15:23:00.911Z,94989.13
2023-04-23T15:25:27.833Z,94984.22
2023-04-23T15:27:57.790Z,94984.22
2023-04-23T15:30:26.117Z,94982.06
2023-04-23T15:32:55.396Z,94983.16
2023-04-23T15:35:26.148Z,94971.66
2023-04-23T15:37:54.433Z,94971.34
2023-04-23T15:40:20.960Z,94924.91
2023-04-23T15:42:49.454Z,94953.50
2023-04-23T15:45:16.981Z,94917.00
2023-04-23T15:48:12.850Z,94956.78
2023-04-23T15:50:39.414Z,94964.78
2023-04-23T15:53:07.270Z,94955.06
2023-04-23T15:55:34.987Z,94921.44
2023-04-23T15:58:07.706Z,94944.56
2023-04-23T16:00:34.634Z,94956.84
2023-04-23T16:03:01.491Z,94914.22
2023-04-23T16:05:29.950Z,94940.31
2023-04-23T16:07:56.499Z,94893.53
2023-04-23T16:10:23.168Z,94955.47
2023-04-23T16:12:50.600Z,94892.00
2023-04-23T16:15:17.151Z,94859.28
2023-04-23T16:17:43.741Z,94883.66
2023-04-23T16:20:11.648Z,94901.81
2023-04-23T16:22:38.337Z,94839.47
2023-04-23T16:25:06.273Z,94841.69
2023-04-23T16:27:33.096Z,94891.06
2023-04-23T16:29:59.679Z,94925.53
2023-04-23T16:32:26.399Z,94856.03
2023-04-23T16:34:52.880Z,94927.47
2023-04-23T16:37:23.417Z,94934.63
2023-04-23T16:39:49.926Z,94928.16
2023-04-23T16:42:16.413Z,94897.84
2023-04-23T16:44:43.158Z,94899.47
2023-04-23T16:47:10.175Z,94844.34
2023-04-23T16:49:36.698Z,94892.06
2023-04-23T16:52:03.770Z,94930.22
2023-04-23T16:54:31.759Z,94905.13
2023-04-23T16:56:58.220Z,94849.44
2023-04-23T16:59:24.716Z,94904.25
2023-04-23T17:01:51.497Z,94908.41
2023-04-23T17:04:18.745Z,94832.59
2023-04-23T17:06:45.484Z,94809.19
2023-04-23T17:09:12.092Z,94864.09
2023-04-23T17:11:38.604Z,94909.94
2023-04-23T17:14:05.199Z,94881.84
2023-04-23T17:16:31.767Z,94893.50
2023-04-23T17:18:58.284Z,94867.47
2023-04-23T17:21:24.997Z,94870.22
2023-04-23T17:23:51.533Z,94885.88
2023-04-23T17:26:19.137Z,94861.09
2023-04-23T17:28:46.068Z,94890.97
2023-04-23T17:31:12.952Z,94870.78
2023-04-23T17:33:39.710Z,94872.34
2023-04-23T17:36:06.317Z,94892.28
2023-04-23T17:38:32.818Z,94887.44
2023-04-23T17:40:59.364Z,94871.53
2023-04-23T17:43:31.580Z,94876.75
2023-04-23T17:45:58.091Z,94890.91
2023-04-23T17:48:25.274Z,94875.00
2023-04-23T17:50:51.823Z,94878.19
2023-04-23T17:53:20.589Z,94868.91
2023-04-23T17:55:47.217Z,94862.53
2023-04-23T17:58:13.819Z,94867.81
2023-04-23T18:00:42.191Z,94864.72
2023-04-23T18:03:09.855Z,94859.88
2023-04-23T18:05:36.689Z,94875.78
2023-04-23T18:08:03.356Z,94873.59
2023-04-23T18:10:29.928Z,94871.59
2023-04-23T18:12:56.560Z,94888.63
2023-04-23T18:15:23.098Z,94872.94
2023-04-23T18:17:50.312Z,94875.59
2023-04-23T18:20:16.846Z,94881.34
2023-04-23T18:22:44.320Z,94856.88
2023-04-23T18:25:11.515Z,94853.03
2023-04-23T18:27:38.353Z,94879.22
2023-04-23T18:30:08.935Z,94845.38
2023-04-23T18:32:40.109Z,94862.97
2023-04-23T18:35:08.152Z,94876.25
2023-04-23T18:37:44.003Z,94872.63
2023-04-23T18:40:11.473Z,94864.66
2023-04-23T18:42:38.263Z,94889.38
2023-04-23T18:45:05.115Z,94909.72
2023-04-23T18:47:36.749Z,94972.00
2023-04-23T18:50:09.097Z,94974.75
2023-04-23T18:52:36.240Z,95009.41
2023-04-23T18:55:03.162Z,95028.38
2023-04-23T18:57:29.613Z,95059.03
2023-04-23T18:59:56.383Z,95077.25
2023-04-23T19:02:34.416Z,95073.75
2023-04-23T19:05:02.355Z,95077.25
2023-04-23T19:07:28.831Z,95066.03
2023-04-23T19:09:55.520Z,95061.53
2023-04-23T19:12:22.171Z,95056.84
2023-04-23T19:14:48.591Z,95063.19
2023-04-23T19:17:18.026Z,95053.81
2023-04-23T19:19:45.288Z,95074.16
2023-04-23T19:22:11.756Z,95048.28
2023-04-23T19:24:38.161Z,95057.63
2023-04-23T19:27:06.665Z,95063.41
2023-04-23T19:29:33.230Z,95056.72
2023-04-23T19:31:59.689Z,95054.84
2023-04-23T19:34:26.371Z,95066.31
2023-04-23T19:36:52.784Z,95073.47
2023-04-23T19:39:19.233Z,95069.72
2023-04-23T19:41:45.906Z,95052.47
2023-04-23T19:44:12.340Z,95056.00
2023-04-23T19:46:38.827Z,95032.06
2023-04-23T19:49:05.329Z,95069.28
2023-04-23T19:51:35.254Z,95077.19
2023-04-23T19:54:02.465Z,95084.66
2023-04-23T19:56:28.951Z,95083.44
2023-04-23T19:58:55.682Z,95083.72
2023-04-23T20:01:22.501Z,95079.69
2023-04-23T20:03:50.859Z,95071.72
2023-04-23T20:06:17.494Z,95083.09
2023-04-23T20:09:03.896Z,95088.84
2023-04-23T20:11:30.806Z,95078.06
2023-04-23T20:13:57.346Z,95104.03
2023-04-23T20:16:24.321Z,95094.72
2023-04-23T20:18:50.815Z,95097.81
2023-04-23T20:21:17.325Z,95063.50
2023-04-23T20:23:43.778Z,95071.94
2023-04-23T20:26:10.259Z,95086.16
2023-04-23T20:28:37.088Z,95083.06
2023-04-23T20:31:03.689Z,95075.06
2023-04-23T20:33:30.967Z,95065.28
2023-04-23T20:35:58.761Z,95051.63
2023-04-23T20:38:30.708Z,95061.38
2023-04-23T20:41:02.273Z,95067.81
2023-04-23T20:43:29.674Z,95063.19
2023-04-23T20:45:56.627Z,95063.50
2023-04-23T20:48:25.710Z,95062.38
2023-04-23T20:50:52.518Z,95089.44
2023-04-23T20:53:18.945Z,95076.06
2023-04-23T20:55:45.386Z,95057.31
2023-04-23T20:58:11.907Z,95070.34
2023-04-23T21:00:38.450Z,95057.16
2023-04-23T21:03:06.038Z,95075.22
2023-04-23T21:05:32.640Z,95056.56
2023-04-23T21:07:59.158Z,95060.44
2023-04-23T21:10:25.709Z,95053.78
2023-04-23T21:12:52.333Z,95013.97
2023-04-23T21:15:18.989Z,95070.44
2023-04-23T21:17:45.562Z,95068.09
2023-04-23T21:20:12.030Z,95076.63
2023-04-23T21:22:38.565Z,95078.81
2023-04-23T21:25:05.515Z,95083.75
2023-04-23T21:27:32.083Z,95070.81
2023-04-23T21:30:03.265Z,95066.97
2023-04-23T21:32:41.013Z,95083.28
2023-04-23T21:35:08.099Z,95079.91
2023-04-23T21:37:37.273Z,95086.88
2023-04-23T21:40:04.810Z,95088.88
2023-04-23T21:42:31.436Z,95086.75
2023-04-23T21:44:57.932Z,95092.66
2023-04-23T21:47:24.400Z,95088.72
2023-04-23T21:49:51.105Z,95092.78
2023-04-23T21:52:17.822Z,95085.50
2023-04-23T21:54:44.293Z,95093.56
2023-04-23T21:57:10.766Z,95083.91
2023-04-23T21:59:37.373Z,95080.34
2023-04-23T22:02:04.078Z,95087.97
2023-04-23T22:04:31.223Z,95087.03
2023-04-23T22:07:03.400Z,95083.75
2023-04-23T22:09:30.114Z,95084.38
2023-04-23T22:14:27.411Z,95091.88
2023-04-23T22:16:55.055Z,95091.72
2023-04-23T22:19:21.685Z,95079.09
2023-04-23T22:21:48.172Z,95088.41
2023-04-23T22:24:14.650Z,95090.41
2023-04-23T22:26:41.191Z,95087.75
2023-04-23T22:29:08.788Z,95088.84
2023-04-23T22:31:35.450Z,95085.47
2023-04-23T22:34:02.031Z,95097.69
2023-04-23T22:36:28.877Z,95091.16
2023-04-23T22:38:56.199Z,95100.66
2023-04-23T22:41:22.745Z,95100.19
2023-04-23T22:43:49.460Z,95098.19
2023-04-23T22:46:16.415Z,95097.38
2023-04-23T22:48:44.960Z,95094.28
2023-04-23T22:51:11.930Z,95096.72
2023-04-23T22:53:38.552Z,95096.72
2023-04-23T22:56:05.190Z,95095.78
2023-04-23T22:58:31.769Z,95097.13
2023-04-23T23:00:58.326Z,95091.22
2023-04-23T23:03:25.720Z,95085.63
2023-04-23T23:05:52.350Z,95093.25
2023-04-23T23:08:18.830Z,95093.59
2023-04-23T23:10:45.476Z,95099.59
2023-04-23T23:13:11.973Z,95089.63
2023-04-23T23:15:38.543Z,95088.50
2023-04-23T23:18:06.001Z,95083.31
2023-04-23T23:20:32.616Z,95083.22
2023-04-23T23:22:59.109Z,95081.47
2023-04-23T23:25:25.667Z,95073.66
2023-04-23T23:27:52.185Z,95085.19
2023-04-23T23:30:18.894Z,95076.66
2023-04-23T23:32:46.126Z,95066.41
2023-04-23T23:35:12.675Z,95065.59
2023-04-23T23:37:39.161Z,95076.63
2023-04-23T23:40:07.114Z,95068.06
2023-04-23T23:42:33.607Z,95060.44
2023-04-23T23:45:00.212Z,95053.25
2023-04-23T23:47:26.948Z,95056.19
2023-04-23T23:49:53.520Z,95054.91
2023-04-23T23:52:20.141Z,95051.69
2023-04-23T23:54:47.020Z,95046.75
2023-04-23T23:57:13.515Z,95050.72
2023-04-23T23:59:40.048Z,95048.41
